Time;durP1;ratioP1;P1;durP2;ratioP2;P2;SDS_P1;SDS_P2;PMS_P1;PMS_P2;Temp;Humidity;BMP_temperature;BMP_pressure;BME280_temperature;BME280_humidity;BME280_pressure;Samples;Min_cycle;Max_cycle;Signal;HPM_P1;HPM_P2
2024/01/06 00:01:46;;;;;;;27.88;19.33;;;;;;;5.98;100.00;100335.34;5014706;28;20036;-77
2024/01/06 00:04:11;;;;;;;27.95;19.52;;;;;;;5.96;100.00;100329.47;5014622;28;20054;-77
2024/01/06 00:06:37;;;;;;;30.83;20.88;;;;;;;5.83;100.00;100313.06;5014717;28;20072;-77
2024/01/06 00:09:03;;;;;;;27.58;19.50;;;;;;;5.92;100.00;100340.00;5014509;28;20030;-77
2024/01/06 00:11:28;;;;;;;25.92;19.52;;;;;;;5.92;100.00;100347.69;5014481;28;20026;-77
2024/01/06 00:13:53;;;;;;;27.85;20.30;;;;;;;5.90;100.00;100349.44;5014446;28;20033;-79
2024/01/06 00:16:20;;;;;;;27.98;19.88;;;;;;;5.88;100.00;100353.81;5012903;28;20042;-78
2024/01/06 00:18:46;;;;;;;30.58;19.42;;;;;;;5.87;100.00;100363.25;5013443;28;20041;-79
2024/01/06 00:21:11;;;;;;;26.65;19.13;;;;;;;5.85;100.00;100364.22;5014669;28;20057;-78
2024/01/06 00:23:36;;;;;;;27.90;19.65;;;;;;;5.77;100.00;100354.38;5014280;28;20469;-78
2024/01/06 00:26:02;;;;;;;29.38;19.65;;;;;;;5.81;100.00;100363.56;5014257;28;20034;-78
2024/01/06 00:28:27;;;;;;;29.73;20.30;;;;;;;5.83;100.00;100366.88;5014495;28;20033;-77
2024/01/06 00:30:53;;;;;;;27.67;19.25;;;;;;;5.82;100.00;100367.78;5014085;28;20041;-77
2024/01/06 00:33:18;;;;;;;28.67;19.65;;;;;;;5.61;100.00;100341.50;5014302;28;20083;-77
2024/01/06 00:35:43;;;;;;;25.65;18.17;;;;;;;5.66;100.00;100359.19;5014222;28;20026;-77
2024/01/06 00:38:09;;;;;;;25.75;17.98;;;;;;;5.77;100.00;100379.97;5014032;28;20033;-77
2024/01/06 00:40:34;;;;;;;28.52;19.38;;;;;;;5.79;100.00;100373.03;5013794;28;20044;-77
2024/01/06 00:43:00;;;;;;;27.83;18.38;;;;;;;5.62;100.00;100360.28;5013947;28;20428;-78
2024/01/06 00:45:25;;;;;;;26.10;17.42;;;;;;;5.76;100.00;100375.78;5013973;28;20037;-77
2024/01/06 00:47:50;;;;;;;25.17;16.80;;;;;;;5.70;100.00;100365.81;5013862;28;20367;-76
2024/01/06 00:50:16;;;;;;;25.60;16.85;;;;;;;5.63;100.00;100367.06;5014141;28;20046;-77
2024/01/06 00:52:42;;;;;;;22.15;15.35;;;;;;;5.64;100.00;100373.81;5014167;28;20021;-77
2024/01/06 00:55:08;;;;;;;22.38;15.32;;;;;;;5.52;100.00;100377.81;5013570;28;20385;-77
2024/01/06 00:57:33;;;;;;;22.75;14.90;;;;;;;5.56;100.00;100388.75;5013631;28;20038;-77
2024/01/06 00:59:58;;;;;;;22.77;14.55;;;;;;;5.30;100.00;100354.97;5013483;28;20477;-77
2024/01/06 01:02:23;;;;;;;20.63;13.52;;;;;;;5.47;100.00;100397.69;5013510;28;20084;-77
2024/01/06 01:04:49;;;;;;;21.50;14.23;;;;;;;5.22;100.00;100364.78;5013647;28;20030;-77
2024/01/06 01:07:14;;;;;;;20.67;13.82;;;;;;;5.28;100.00;100372.16;5013597;28;20462;-78
2024/01/06 01:09:39;;;;;;;21.17;13.43;;;;;;;5.36;100.00;100397.41;5013514;28;20030;-77
2024/01/06 01:12:05;;;;;;;20.92;14.05;;;;;;;5.32;100.00;100391.59;5013516;28;20024;-77
2024/01/06 01:14:30;;;;;;;20.65;13.93;;;;;;;5.32;100.00;100401.84;5013412;28;20034;-77
2024/01/06 01:16:56;;;;;;;20.50;13.77;;;;;;;5.22;100.00;100390.38;5013443;28;20064;-77
2024/01/06 01:19:21;;;;;;;19.08;12.77;;;;;;;5.30;100.00;100418.16;5013248;28;20029;-77
2024/01/06 01:21:46;;;;;;;20.67;13.23;;;;;;;5.29;100.00;100407.09;5013462;28;20026;-77
2024/01/06 01:24:12;;;;;;;18.73;13.00;;;;;;;5.22;100.00;100403.19;5013473;28;20060;-76
2024/01/06 01:26:37;;;;;;;19.67;12.70;;;;;;;5.14;100.00;100393.31;5013057;28;20382;-77
2024/01/06 01:29:02;;;;;;;17.15;12.02;;;;;;;5.25;100.00;100425.25;5012898;28;20037;-77
2024/01/06 01:31:27;;;;;;;17.10;11.80;;;;;;;5.23;100.00;100427.88;5013190;28;20091;-77
2024/01/06 01:33:53;;;;;;;15.77;11.23;;;;;;;5.19;100.00;100436.59;5013073;28;20026;-77
2024/01/06 01:36:18;;;;;;;17.85;12.25;;;;;;;5.16;100.00;100432.44;5013231;28;20474;-77
2024/01/06 01:38:43;;;;;;;17.13;11.30;;;;;;;5.18;100.00;100442.59;4994918;28;20034;-78
2024/01/06 01:41:09;;;;;;;16.33;11.27;;;;;;;5.18;100.00;100440.03;5013144;28;20037;-77
2024/01/06 01:43:34;;;;;;;17.40;12.15;;;;;;;5.04;100.00;100421.97;5012857;28;20470;-77
2024/01/06 01:46:00;;;;;;;17.20;11.95;;;;;;;5.08;100.00;100428.59;5012975;28;20072;-77
2024/01/06 01:48:25;;;;;;;17.58;11.73;;;;;;;5.19;100.00;100444.25;5013210;28;20026;-77
2024/01/06 01:50:52;;;;;;;18.63;12.30;;;;;;;5.17;100.00;100461.44;5012946;28;20088;-77
2024/01/06 01:53:18;;;;;;;17.73;12.32;;;;;;;5.15;100.00;100458.13;5012946;28;20018;-77
2024/01/06 01:55:44;;;;;;;17.55;12.35;;;;;;;5.13;100.00;100462.47;5012840;28;20087;-77
2024/01/06 01:58:12;;;;;;;18.70;11.45;;;;;;;5.04;100.00;100460.34;5012558;28;20022;-77
2024/01/06 02:00:38;;;;;;;17.38;12.25;;;;;;;5.10;100.00;100467.72;5012850;28;20026;-77
2024/01/06 02:03:05;;;;;;;18.88;12.05;;;;;;;5.03;100.00;100462.06;5012815;28;20489;-77
2024/01/06 02:05:30;;;;;;;18.52;12.20;;;;;;;4.96;100.00;100457.31;5012586;28;20041;-77
2024/01/06 02:07:56;;;;;;;17.27;12.60;;;;;;;4.98;100.00;100468.28;5012829;28;20386;-77
2024/01/06 02:10:21;;;;;;;16.63;12.20;;;;;;;5.02;100.00;100477.50;5012465;28;20045;-77
2024/01/06 02:12:48;;;;;;;17.42;11.85;;;;;;;4.98;100.00;100486.19;5012752;28;20025;-77
2024/01/06 02:15:13;;;;;;;17.52;11.73;;;;;;;4.97;100.00;100492.22;5012914;28;20026;-77
2024/01/06 02:17:39;;;;;;;16.52;10.63;;;;;;;4.95;100.00;100494.03;4994710;28;20568;-78
2024/01/06 02:20:06;;;;;;;16.88;10.95;;;;;;;4.92;100.00;100487.31;5012551;28;20025;-77
2024/01/06 02:22:32;;;;;;;16.85;12.07;;;;;;;4.90;100.00;100501.91;5012485;28;20037;-77
2024/01/06 02:24:58;;;;;;;17.73;13.13;;;;;;;4.77;100.00;100477.75;5012429;28;20033;-77
2024/01/06 02:27:23;;;;;;;17.92;11.93;;;;;;;4.78;100.00;100497.31;5012402;28;20026;-77
2024/01/06 02:29:49;;;;;;;15.85;11.18;;;;;;;4.51;100.00;100464.38;5012533;28;20080;-77
2024/01/06 02:32:14;;;;;;;15.10;11.10;;;;;;;4.66;100.00;100508.94;5012671;28;20030;-77
2024/01/06 02:34:39;;;;;;;15.00;10.32;;;;;;;4.59;100.00;100504.97;5012511;28;20108;-77
2024/01/06 02:37:05;;;;;;;14.55;10.48;;;;;;;4.49;100.00;100508.81;5012370;28;20104;-77
2024/01/06 02:39:30;;;;;;;14.57;10.10;;;;;;;4.27;100.00;100480.78;5012030;28;20057;-77
2024/01/06 02:41:55;;;;;;;15.20;9.93;;;;;;;4.29;100.00;100494.34;5014479;28;20022;-77
2024/01/06 02:44:21;;;;;;;14.65;10.02;;;;;;;4.45;100.00;100520.91;5016344;28;20026;-77
2024/01/06 02:46:46;;;;;;;14.65;10.32;;;;;;;4.43;100.00;100532.13;5016270;28;20022;-77
2024/01/06 02:49:11;;;;;;;14.23;9.80;;;;;;;4.40;100.00;100527.09;5016200;28;20033;-77
2024/01/06 02:51:37;;;;;;;12.98;9.00;;;;;;;4.35;100.00;100536.72;5015958;28;20033;-77
2024/01/06 02:54:02;;;;;;;13.75;8.93;;;;;;;4.34;100.00;100537.63;5015668;28;20037;-77
2024/01/06 02:56:27;;;;;;;13.00;7.95;;;;;;;4.22;100.00;100529.53;5016066;28;20033;-79
2024/01/06 02:58:53;;;;;;;12.35;8.35;;;;;;;4.32;100.00;100542.75;5015936;28;20022;-80
2024/01/06 03:01:18;;;;;;;11.43;8.07;;;;;;;4.31;100.00;100544.50;5015815;28;20433;-78
2024/01/06 03:03:43;;;;;;;11.63;8.57;;;;;;;4.31;100.00;100559.81;5015859;28;20121;-77
2024/01/06 03:06:09;;;;;;;11.95;7.93;;;;;;;4.26;100.00;100548.97;5015733;28;20084;-77
2024/01/06 03:08:34;;;;;;;11.55;7.45;;;;;;;4.31;100.00;100559.81;5015408;28;20061;-79
2024/01/06 03:11:00;;;;;;;10.55;7.30;;;;;;;4.22;100.00;100541.47;5015690;28;20029;-79
2024/01/06 03:13:25;;;;;;;11.40;7.57;;;;;;;4.14;100.00;100531.59;5015721;28;20080;-78
2024/01/06 03:15:50;;;;;;;10.88;7.90;;;;;;;4.36;100.00;100566.50;5015849;28;20446;-78
2024/01/06 03:18:16;;;;;;;10.98;7.25;;;;;;;4.37;100.00;100576.66;5015568;28;20022;-79
2024/01/06 03:20:41;;;;;;;9.65;6.50;;;;;;;4.35;100.00;100577.63;5015397;28;20517;-78
2024/01/06 03:23:06;;;;;;;9.10;6.55;;;;;;;4.18;100.00;100562.97;5015515;28;20489;-78
2024/01/06 03:25:32;;;;;;;8.82;6.13;;;;;;;4.30;100.00;100591.41;5015237;28;20097;-80
2024/01/06 03:27:57;;;;;;;9.55;6.53;;;;;;;4.11;100.00;100564.91;5015352;28;20382;-78
2024/01/06 03:30:22;;;;;;;9.38;6.65;;;;;;;4.26;100.00;100592.44;5015490;28;20101;-80
2024/01/06 03:32:48;;;;;;;8.95;6.30;;;;;;;4.24;100.00;100596.78;5015438;28;20470;-79
2024/01/06 03:35:13;;;;;;;10.35;6.55;;;;;;;4.21;100.00;100599.44;5015229;28;20212;-79
2024/01/06 03:37:38;;;;;;;8.57;6.57;;;;;;;4.20;100.00;100602.06;5015293;28;20026;-78
2024/01/06 03:40:04;;;;;;;10.80;8.18;;;;;;;4.18;100.00;100611.50;5014747;28;20050;-79
2024/01/06 03:42:30;;;;;;;10.45;7.32;;;;;;;4.06;100.00;100583.91;5015261;28;20026;-78
2024/01/06 03:44:55;;;;;;;10.10;7.53;;;;;;;4.18;100.00;100609.78;5015083;28;20025;-78
2024/01/06 03:47:20;;;;;;;11.50;8.77;;;;;;;4.12;100.00;100609.19;4997427;28;20057;-77
2024/01/06 03:49:46;;;;;;;11.32;8.18;;;;;;;4.19;100.00;100619.13;5014997;28;20057;-78
2024/01/06 03:52:13;;;;;;;10.65;7.85;;;;;;;4.07;100.00;100600.91;5014920;28;20022;-77
2024/01/06 03:54:39;;;;;;;11.35;8.38;;;;;;;4.16;100.00;100624.34;5014827;28;20056;-77
2024/01/06 03:57:04;;;;;;;10.45;7.90;;;;;;;3.98;100.00;100607.19;5014685;28;20057;-79
2024/01/06 03:59:29;;;;;;;10.52;7.88;;;;;;;3.90;100.00;100612.59;5014619;28;20488;-77
2024/01/06 04:01:55;;;;;;;11.77;8.65;;;;;;;3.99;100.00;100621.63;5014656;28;20109;-77
2024/01/06 04:04:20;;;;;;;12.10;9.20;;;;;;;3.99;100.00;100621.63;5014577;28;20034;-78
2024/01/06 04:06:45;;;;;;;14.25;10.27;;;;;;;3.97;100.00;100626.81;5014698;28;20034;-77
2024/01/06 04:09:11;;;;;;;12.68;9.70;;;;;;;3.93;100.00;100630.38;5014617;28;20037;-77
2024/01/06 04:11:36;;;;;;;13.23;8.95;;;;;;;3.95;100.00;100631.16;5014444;28;20108;-77
2024/01/06 04:14:01;;;;;;;14.38;9.00;;;;;;;3.92;100.00;100633.78;4996734;28;20029;-76
2024/01/06 04:16:27;;;;;;;13.77;9.55;;;;;;;3.74;100.00;100617.47;5014670;28;20026;-76
2024/01/06 04:18:52;;;;;;;13.63;9.38;;;;;;;3.66;100.00;100609.28;5014345;28;20033;-76
2024/01/06 04:21:18;;;;;;;16.73;9.65;;;;;;;3.82;100.00;100629.94;5001129;28;20034;-76
2024/01/06 04:23:43;;;;;;;13.35;9.50;;;;;;;3.86;100.00;100636.59;4994736;28;20394;-76
2024/01/06 04:26:09;;;;;;;11.90;9.15;;;;;;;3.69;100.00;100608.31;4994637;28;20030;-76
2024/01/06 04:28:34;;;;;;;15.05;9.90;;;;;;;3.87;100.00;100637.44;4994467;28;20026;-76
2024/01/06 04:30:59;;;;;;;13.15;9.30;;;;;;;3.90;100.00;100637.31;4994660;28;20181;-76
2024/01/06 04:33:25;;;;;;;11.88;9.02;;;;;;;3.76;100.00;100626.81;4994490;28;20030;-76
2024/01/06 04:35:50;;;;;;;12.25;9.18;;;;;;;3.78;100.00;100636.06;4994570;28;20117;-76
2024/01/06 04:38:15;;;;;;;12.52;9.20;;;;;;;3.87;100.00;100655.31;4994432;28;20105;-76
2024/01/06 04:40:41;;;;;;;13.55;10.23;;;;;;;3.83;100.00;100659.69;4988932;28;20042;-76
2024/01/06 04:43:07;;;;;;;12.07;8.77;;;;;;;3.77;100.00;100638.69;4994207;28;20049;-76
2024/01/06 04:45:32;;;;;;;15.30;9.60;;;;;;;3.87;100.00;100652.75;4994248;28;20508;-76
2024/01/06 04:47:57;;;;;;;13.65;8.90;;;;;;;3.90;100.00;100661.13;4994266;28;20022;-76
2024/01/06 04:50:23;;;;;;;12.55;8.95;;;;;;;3.95;100.00;100663.53;4994414;28;20410;-77
2024/01/06 04:52:48;;;;;;;14.27;9.43;;;;;;;3.88;100.00;100639.09;4994298;28;20018;-76
2024/01/06 04:55:13;;;;;;;13.43;9.55;;;;;;;4.03;100.00;100669.16;4994140;28;20041;-75
2024/01/06 04:57:39;;;;;;;11.98;8.68;;;;;;;3.89;100.00;100638.19;5008270;28;20122;-76
2024/01/06 05:00:05;;;;;;;13.48;8.10;;;;;;;3.99;100.00;100665.06;4993770;28;20076;-76
2024/01/06 05:02:30;;;;;;;13.48;9.55;;;;;;;3.88;100.00;100651.88;4993810;28;20044;-76
2024/01/06 05:04:55;;;;;;;13.70;9.20;;;;;;;3.98;100.00;100671.06;4993944;28;20515;-76
2024/01/06 05:07:21;;;;;;;13.80;9.18;;;;;;;3.99;100.00;100670.16;4994032;28;20036;-77
2024/01/06 05:09:46;;;;;;;14.43;9.85;;;;;;;3.99;100.00;100673.56;4993958;28;20036;-76
2024/01/06 05:12:12;;;;;;;12.68;9.32;;;;;;;3.85;100.00;100663.03;4993833;28;20521;-76
2024/01/06 05:14:37;;;;;;;13.23;9.80;;;;;;;3.95;100.00;100689.06;4993485;28;20109;-76
2024/01/06 05:17:03;;;;;;;14.15;9.25;;;;;;;3.86;100.00;100687.69;4993720;28;20462;-76
2024/01/06 05:19:28;;;;;;;13.48;9.00;;;;;;;3.83;100.00;100692.06;4993579;28;20096;-76
2024/01/06 05:21:54;;;;;;;11.88;8.55;;;;;;;3.69;100.00;100680.66;4993821;28;20479;-76
2024/01/06 05:24:20;;;;;;;12.98;8.35;;;;;;;3.79;100.00;100698.19;4993684;28;20463;-76
2024/01/06 05:26:45;;;;;;;12.38;8.95;;;;;;;3.82;100.00;100710.84;4993354;28;20031;-76
2024/01/06 05:29:11;;;;;;;11.45;7.65;;;;;;;3.69;100.00;100687.47;4993325;28;20030;-76
2024/01/06 05:31:36;;;;;;;12.23;7.57;;;;;;;3.65;100.00;100689.31;4993447;28;20057;-77
2024/01/06 05:34:01;;;;;;;10.63;7.15;;;;;;;3.77;100.00;100710.19;4993460;28;20053;-76
2024/01/06 05:36:27;;;;;;;10.98;7.63;;;;;;;3.76;100.00;100718.75;4993505;28;20120;-76
2024/01/06 05:38:52;;;;;;;13.90;7.80;;;;;;;3.78;100.00;100714.41;4993231;28;20463;-77
2024/01/06 05:41:17;;;;;;;11.18;7.75;;;;;;;3.67;100.00;100714.81;4993360;28;20030;-77
2024/01/06 05:43:43;;;;;;;12.25;8.63;;;;;;;3.69;100.00;100724.06;4993244;28;20049;-76
2024/01/06 05:46:10;;;;;;;12.35;8.10;;;;;;;3.52;100.00;100703.41;4993115;28;20062;-76
2024/01/06 05:48:35;;;;;;;12.77;8.18;;;;;;;3.72;100.00;100723.09;4993388;28;20084;-76
2024/01/06 05:51:01;;;;;;;12.05;9.13;;;;;;;3.59;100.00;100715.06;4993484;28;20027;-76
2024/01/06 05:53:26;;;;;;;13.50;8.93;;;;;;;3.61;100.00;100720.13;4993123;28;20497;-76
2024/01/06 05:55:52;;;;;;;12.85;8.00;;;;;;;3.66;100.00;100738.66;4993192;28;20026;-75
2024/01/06 05:58:17;;;;;;;16.90;10.15;;;;;;;3.62;100.00;100735.38;4992998;28;20169;-76
2024/01/06 06:00:42;;;;;;;10.85;7.53;;;;;;;3.51;100.00;100729.81;4993097;28;20507;-76
2024/01/06 06:03:07;;;;;;;12.18;8.52;;;;;;;3.59;100.00;100749.97;4993335;28;20854;-76
2024/01/06 06:05:33;;;;;;;11.50;7.88;;;;;;;3.52;100.00;100741.69;4993022;28;20044;-76
2024/01/06 06:07:58;;;;;;;13.27;7.90;;;;;;;3.53;100.00;100753.56;4993267;28;20026;-76
2024/01/06 06:10:29;;;;;;;11.70;7.97;;;;;;;3.24;100.00;100726.50;4993153;28;20027;-76
2024/01/06 06:12:55;;;;;;;12.00;8.05;;;;;;;3.31;100.00;100737.34;4993220;28;20027;-76
2024/01/06 06:15:20;;;;;;;10.10;6.97;;;;;;;3.48;100.00;100760.56;4992988;28;20030;-76
2024/01/06 06:17:46;;;;;;;10.95;7.00;;;;;;;3.48;100.00;100775.88;4996410;28;20034;-76
2024/01/06 06:20:11;;;;;;;10.10;6.75;;;;;;;3.38;100.00;100766.88;4996923;28;20077;-76
2024/01/06 06:22:36;;;;;;;11.40;7.63;;;;;;;3.49;100.00;100785.22;4996939;28;20073;-76
2024/01/06 06:25:03;;;;;;;10.10;6.50;;;;;;;3.51;100.00;100791.09;4996814;28;20026;-76
2024/01/06 06:27:28;;;;;;;9.05;6.30;;;;;;;3.30;100.00;100763.75;4996948;28;20018;-76
2024/01/06 06:29:56;;;;;;;10.32;7.57;;;;;;;3.34;100.00;100778.06;4996725;28;20041;-77
2024/01/06 06:32:21;;;;;;;11.68;7.85;;;;;;;3.42;100.00;100806.72;4996680;28;20029;-76
2024/01/06 06:34:46;;;;;;;11.32;7.90;;;;;;;3.37;100.00;100794.13;4996752;28;20034;-76
2024/01/06 06:37:12;;;;;;;11.32;7.82;;;;;;;3.35;100.00;100803.56;4979040;28;20117;-76
2024/01/06 06:39:37;;;;;;;13.70;8.65;;;;;;;3.30;100.00;100807.97;4998790;28;20046;-76
2024/01/06 06:42:03;;;;;;;14.25;10.23;;;;;;;3.30;100.00;100812.25;4996356;28;20026;-76
2024/01/06 06:44:29;;;;;;;15.27;10.35;;;;;;;3.00;100.00;100778.34;4996406;28;20030;-76
2024/01/06 06:46:55;;;;;;;13.80;9.68;;;;;;;3.06;100.00;100794.31;4996492;28;20489;-77
2024/01/06 06:49:20;;;;;;;16.08;10.30;;;;;;;3.08;100.00;100805.28;4996253;28;20037;-78
2024/01/06 06:51:48;;;;;;;13.82;9.38;;;;;;;3.20;100.00;100827.03;4996490;28;20036;-79
2024/01/06 06:54:15;;;;;;;16.50;10.35;;;;;;;3.17;100.00;100830.50;4996384;28;20033;-78
2024/01/06 06:56:41;;;;;;;15.45;10.38;;;;;;;3.17;100.00;100827.13;4996365;28;20117;-77
2024/01/06 06:59:07;;;;;;;13.70;9.93;;;;;;;3.10;100.00;100829.03;4996231;28;20106;-77
2024/01/06 07:01:32;;;;;;;15.23;9.60;;;;;;;3.05;100.00;100827.53;4996222;28;20545;-77
2024/01/06 07:03:57;;;;;;;16.88;10.75;;;;;;;3.12;100.00;100840.00;4996209;28;20065;-77
2024/01/06 07:06:23;;;;;;;18.67;11.25;;;;;;;3.12;100.00;100855.31;4996174;28;20077;-77
2024/01/06 07:08:49;;;;;;;19.33;11.02;;;;;;;3.11;100.00;100857.94;4996120;28;20022;-76
2024/01/06 07:11:17;;;;;;;15.90;10.48;;;;;;;3.08;100.00;100874.19;4996153;28;20022;-76
2024/01/06 07:13:43;;;;;;;18.55;12.18;;;;;;;2.88;100.00;100845.91;4996230;28;20034;-76
2024/01/06 07:16:08;;;;;;;18.63;11.10;;;;;;;2.90;100.00;100850.94;4996025;28;20025;-77
2024/01/06 07:18:34;;;;;;;17.10;9.85;;;;;;;3.09;100.00;100880.13;4995727;28;20030;-77
2024/01/06 07:20:59;;;;;;;16.65;10.98;;;;;;;3.12;100.00;100874.91;4995973;28;20031;-77
2024/01/06 07:23:24;;;;;;;17.33;11.20;;;;;;;3.12;100.00;100880.00;4996049;28;20026;-79
2024/01/06 07:25:50;;;;;;;17.67;12.25;;;;;;;3.09;100.00;100888.59;4995745;28;20372;-76
2024/01/06 07:28:15;;;;;;;19.77;11.82;;;;;;;2.99;100.00;100866.81;4995309;28;20033;-76
2024/01/06 07:30:40;;;;;;;18.13;11.68;;;;;;;2.98;100.00;100869.41;4995441;28;20033;-76
2024/01/06 07:33:06;;;;;;;20.20;12.45;;;;;;;3.05;100.00;100894.69;4995529;28;20027;-76
2024/01/06 07:35:31;;;;;;;18.13;11.85;;;;;;;3.08;100.00;100893.75;4995639;28;20030;-76
2024/01/06 07:37:56;;;;;;;16.05;11.43;;;;;;;3.07;100.00;100887.00;4995959;28;20151;-76
2024/01/06 07:40:23;;;;;;;15.93;11.15;;;;;;;3.03;100.00;100887.94;4986197;28;20513;-76
2024/01/06 07:42:48;;;;;;;17.45;11.20;;;;;;;3.05;100.00;100892.13;4995410;28;20510;-76
2024/01/06 07:45:14;;;;;;;15.68;11.82;;;;;;;2.94;100.00;100886.50;4995290;28;20045;-76
2024/01/06 07:47:39;;;;;;;15.85;11.02;;;;;;;3.04;100.00;100895.53;5000330;28;20024;-73
2024/01/06 07:50:05;;;;;;;17.98;12.15;;;;;;;3.00;100.00;100895.69;5015423;28;20431;-73
2024/01/06 07:52:30;;;;;;;16.88;10.90;;;;;;;3.07;100.00;100918.44;5015580;28;20064;-75
2024/01/06 07:54:56;;;;;;;15.20;11.30;;;;;;;3.05;100.00;100920.19;5015111;28;20105;-73
2024/01/06 07:57:21;;;;;;;16.15;11.32;;;;;;;3.06;100.00;100915.94;5014793;28;20104;-76
2024/01/06 07:59:46;;;;;;;16.10;11.63;;;;;;;3.08;100.00;100922.66;5014667;28;20125;-74
2024/01/06 08:02:12;;;;;;;17.08;11.82;;;;;;;3.03;100.00;100929.59;5014376;28;20113;-72
2024/01/06 08:04:37;;;;;;;15.32;10.63;;;;;;;3.03;100.00;100934.69;5014487;28;20026;-75
2024/01/06 08:07:02;;;;;;;17.05;11.50;;;;;;;2.97;100.00;100928.97;5014377;28;20030;-76
2024/01/06 08:09:28;;;;;;;18.30;11.70;;;;;;;2.96;100.00;100938.34;5014905;28;20026;-76
2024/01/06 08:11:53;;;;;;;16.65;10.98;;;;;;;2.79;100.00;100913.31;5014589;28;20414;-76
2024/01/06 08:14:18;;;;;;;15.00;10.55;;;;;;;2.94;100.00;100950.28;5014603;28;20025;-77
2024/01/06 08:16:44;;;;;;;18.63;12.60;;;;;;;2.92;100.00;100953.75;5014102;28;20057;-73
2024/01/06 08:19:10;;;;;;;20.40;12.00;;;;;;;2.82;100.00;100933.63;5014299;28;20053;-77
2024/01/06 08:21:35;;;;;;;18.45;11.63;;;;;;;3.01;100.00;100971.34;5014099;28;20489;-76
2024/01/06 08:24:01;;;;;;;20.27;13.52;;;;;;;2.98;100.00;100963.78;5014349;28;20026;-76
2024/01/06 08:26:26;;;;;;;16.42;11.13;;;;;;;2.99;100.00;100973.94;5014420;28;20033;-76
2024/01/06 08:28:52;;;;;;;15.38;10.93;;;;;;;2.96;100.00;100976.59;4996232;28;20064;-74
2024/01/06 08:31:18;;;;;;;17.70;10.88;;;;;;;2.96;100.00;100975.75;5014072;28;20026;-76
2024/01/06 08:33:43;;;;;;;14.90;10.25;;;;;;;2.96;100.00;100976.59;5012624;28;20038;-77
2024/01/06 08:36:09;;;;;;;15.25;11.02;;;;;;;2.87;100.00;100974.31;5014012;28;20026;-76
2024/01/06 08:38:35;;;;;;;16.63;11.15;;;;;;;2.86;100.00;100985.41;5013383;28;20084;-75
2024/01/06 08:41:01;;;;;;;15.57;10.45;;;;;;;2.81;100.00;100982.97;5014237;28;20505;-75
2024/01/06 08:43:28;;;;;;;16.27;11.05;;;;;;;2.85;100.00;101004.09;5014114;28;20033;-75
2024/01/06 08:45:57;;;;;;;17.92;11.52;;;;;;;2.86;100.00;101003.25;5013972;28;20100;-76
2024/01/06 08:48:22;;;;;;;17.13;10.90;;;;;;;2.85;100.00;101004.97;5013935;28;20099;-77
2024/01/06 08:50:47;;;;;;;16.35;11.75;;;;;;;2.91;100.00;101008.19;5013888;28;20482;-75
2024/01/06 08:53:13;;;;;;;17.10;11.35;;;;;;;2.94;100.00;101016.59;5013691;28;20025;-75
2024/01/06 08:55:38;;;;;;;16.73;11.15;;;;;;;2.97;100.00;101016.53;5013975;28;20125;-75
2024/01/06 08:58:04;;;;;;;18.33;12.05;;;;;;;3.01;100.00;101015.53;5013594;28;20022;-74
2024/01/06 09:00:29;;;;;;;17.10;11.63;;;;;;;2.91;100.00;100998.84;5013749;28;20471;-75
2024/01/06 09:02:55;;;;;;;17.35;11.70;;;;;;;3.03;100.00;101018.88;4996147;28;20382;-75
2024/01/06 09:05:20;;;;;;;18.75;13.02;;;;;;;3.08;100.00;101031.53;5013434;28;20076;-75
2024/01/06 09:07:49;;;;;;;14.85;11.13;;;;;;;2.83;100.00;100998.22;5013401;28;20049;-73
2024/01/06 09:10:15;;;;;;;15.35;10.88;;;;;;;2.76;100.00;100992.47;5013546;28;20030;-75
2024/01/06 09:12:40;;;;;;;15.65;10.13;;;;;;;3.04;100.00;101040.13;5012241;28;20056;-75
2024/01/06 09:15:06;;;;;;;15.18;10.80;;;;;;;2.93;100.00;101037.88;5013719;28;20037;-77
2024/01/06 09:17:32;;;;;;;14.30;10.30;;;;;;;2.95;100.00;101048.91;5013413;28;20104;-74
2024/01/06 09:19:58;;;;;;;17.80;11.73;;;;;;;2.81;100.00;101035.69;5013213;28;20157;-75
2024/01/06 09:22:23;;;;;;;14.80;10.95;;;;;;;2.88;100.00;101049.94;5013002;28;20022;-76
2024/01/06 09:24:49;;;;;;;13.45;9.88;;;;;;;2.95;100.00;101059.09;5013334;28;20034;-75
2024/01/06 09:27:15;;;;;;;15.73;10.38;;;;;;;3.02;100.00;101062.31;5012708;28;20025;-76
2024/01/06 09:29:41;;;;;;;12.75;9.90;;;;;;;3.05;100.00;101070.72;4995389;28;20038;-74
2024/01/06 09:32:06;;;;;;;13.00;9.88;;;;;;;3.05;100.00;101065.63;5012914;28;20123;-75
2024/01/06 09:34:32;;;;;;;14.18;10.60;;;;;;;3.08;100.00;101077.44;5013010;28;20038;-75
2024/01/06 09:36:57;;;;;;;13.85;9.88;;;;;;;3.04;100.00;101089.44;5012920;28;20026;-74
2024/01/06 09:39:22;;;;;;;12.98;9.98;;;;;;;2.93;100.00;101067.66;5012422;28;20039;-75
2024/01/06 09:41:48;;;;;;;13.20;10.80;;;;;;;3.01;100.00;101083.59;5012973;28;20026;-75
2024/01/06 09:44:13;;;;;;;13.07;10.13;;;;;;;3.01;100.00;101086.16;4979123;28;20033;-75
2024/01/06 09:46:40;;;;;;;14.15;10.18;;;;;;;2.85;100.00;101071.28;5012828;28;20101;-76
2024/01/06 09:49:06;;;;;;;12.68;10.05;;;;;;;2.88;100.00;101088.19;5012569;28;20076;-75
2024/01/06 09:51:32;;;;;;;15.57;11.38;;;;;;;2.86;100.00;101092.50;5012864;28;20022;-76
2024/01/06 09:54:00;;;;;;;15.20;10.60;;;;;;;2.92;100.00;101102.53;5012769;28;20052;-75
2024/01/06 09:56:26;;;;;;;13.45;10.35;;;;;;;2.94;100.00;101108.41;5012992;28;20026;-75
2024/01/06 09:58:52;;;;;;;14.68;11.02;;;;;;;2.83;100.00;101090.03;5012840;28;20141;-72
2024/01/06 10:01:18;;;;;;;12.80;10.18;;;;;;;3.02;100.00;101109.06;5012789;28;20521;-74
2024/01/06 10:03:45;;;;;;;14.80;10.88;;;;;;;3.01;100.00;101119.31;5012645;28;20030;-76
2024/01/06 10:06:10;;;;;;;15.90;10.40;;;;;;;2.99;100.00;101110.88;5012697;28;20466;-77
2024/01/06 10:08:36;;;;;;;13.10;9.68;;;;;;;3.10;100.00;101127.56;5012257;28;20101;-75
2024/01/06 10:11:01;;;;;;;13.43;10.13;;;;;;;3.10;100.00;101122.44;5012758;28;20030;-76
2024/01/06 10:13:28;;;;;;;14.52;11.10;;;;;;;3.03;100.00;101109.91;5012905;28;20057;-76
2024/01/06 10:15:54;;;;;;;14.55;10.52;;;;;;;3.06;100.00;101120.03;5012804;28;20105;-76
2024/01/06 10:18:20;;;;;;;13.35;9.38;;;;;;;3.11;100.00;101139.44;5012321;28;20398;-76
2024/01/06 10:20:47;;;;;;;12.88;9.85;;;;;;;3.02;100.00;101119.25;5012490;28;20033;-75
2024/01/06 10:23:13;;;;;;;12.95;9.73;;;;;;;3.05;100.00;101123.47;5010953;28;20022;-74
2024/01/06 10:25:39;;;;;;;13.90;9.90;;;;;;;3.20;100.00;101137.50;5012782;28;20057;-76
2024/01/06 10:28:04;;;;;;;12.60;9.27;;;;;;;3.26;100.00;101145.84;4994329;28;20055;-77
2024/01/06 10:30:30;;;;;;;13.18;9.50;;;;;;;3.28;100.00;101150.91;5012457;28;20040;-78
2024/01/06 10:32:55;;;;;;;11.70;9.05;;;;;;;3.23;100.00;101143.34;5012437;28;20029;-77
2024/01/06 10:35:20;;;;;;;12.95;9.50;;;;;;;3.23;100.00;101151.00;5012511;28;20097;-78
2024/01/06 10:37:47;;;;;;;12.88;9.23;;;;;;;3.29;100.00;101157.69;5012259;28;20026;-78
2024/01/06 10:40:15;;;;;;;12.60;9.13;;;;;;;3.09;100.00;101128.44;5012026;28;20073;-78
2024/01/06 10:42:41;;;;;;;13.38;9.25;;;;;;;3.26;100.00;101153.50;5012742;28;20398;-76
2024/01/06 10:45:09;;;;;;;11.63;8.70;;;;;;;3.05;100.00;101126.03;5012524;28;20029;-77
2024/01/06 10:47:40;;;;;;;12.95;9.20;;;;;;;3.04;100.00;101124.31;5012143;28;20030;-79
2024/01/06 10:50:07;;;;;;;12.20;8.82;;;;;;;3.22;100.00;101159.53;5012109;28;20390;-76
2024/01/06 10:52:34;;;;;;;12.23;9.00;;;;;;;3.20;100.00;101160.47;5012242;28;20026;-76
2024/01/06 10:55:00;;;;;;;12.25;9.40;;;;;;;3.05;100.00;101147.25;5012182;28;20045;-76
2024/01/06 10:57:27;;;;;;;14.07;9.18;;;;;;;3.07;100.00;101148.06;5012380;28;20022;-76
2024/01/06 10:59:53;;;;;;;14.30;9.93;;;;;;;3.24;100.00;101164.59;5012176;28;20037;-77
2024/01/06 11:02:19;;;;;;;11.88;8.65;;;;;;;3.15;100.00;101151.25;5012983;28;20026;-77
2024/01/06 11:04:48;;;;;;;12.57;9.60;;;;;;;3.09;100.00;101140.34;5015568;28;20026;-76